Time;durP1;ratioP1;P1;durP2;ratioP2;P2;SDS_P1;SDS_P2;PMS_P1;PMS_P2;Temp;Humidity;BMP_temperature;BMP_pressure;BME280_temperature;BME280_humidity;BME280_pressure;Samples;Min_cycle;Max_cycle;Signal;HPM_P1;HPM_P2
2022/11/04 00:00:45;;;;;;;;;;;;;;;20.58;67.06;98015.44;2078179;28;20145;-46
2022/11/04 00:01:46;;;;;;;;;;;;;;;20.52;67.43;98010.94;2075903;28;20000;-45
2022/11/04 00:02:48;;;;;;;8.77;6.28;;;;;;;20.57;66.86;97999.50;2076005;28;21153;-44
2022/11/04 00:03:48;;;;;;;11.68;6.97;;;;;;;20.62;67.14;97994.25;2074135;28;20057;-47
2022/11/04 00:04:50;;;;;;;;;;;;;;;20.55;67.09;97996.22;2074590;28;20168;-47
2022/11/04 00:05:51;;;;;;;7.50;6.18;;;;;;;20.60;66.79;97996.34;2074881;28;19921;-47
2022/11/04 00:06:53;;;;;;;8.95;5.78;;;;;;;20.64;66.87;97994.81;2075002;28;20132;-47
2022/11/04 00:09:27;;;;;;;10.38;7.18;;;;;;;20.64;66.86;97978.66;2052558;28;20535;-48
2022/11/04 00:13:04;;;;;;;8.55;6.72;;;;;;;20.64;66.83;97966.00;2077032;28;20042;-47
2022/11/04 00:14:07;;;;;;;8.25;5.90;;;;;;;20.66;66.58;97960.38;2076045;28;20140;-48
2022/11/04 00:17:48;;;;;;;7.85;6.63;;;;;;;20.65;66.52;97948.78;2069513;28;20049;-47
2022/11/04 00:18:50;;;;;;;8.27;6.05;;;;;;;20.65;66.66;97942.59;2074037;28;20069;-46
2022/11/04 00:29:09;;;;;;;9.63;7.00;;;;;;;20.64;66.70;97912.09;2073885;28;20042;-46
2022/11/04 00:30:10;;;;;;;8.02;6.20;;;;;;;20.66;66.63;97903.81;2074853;28;20049;-46
2022/11/04 00:33:53;;;;;;;7.72;6.28;;;;;;;20.66;66.53;97912.72;2076105;28;20540;-46
2022/11/04 00:34:54;;;;;;;7.43;5.88;;;;;;;20.68;66.53;97912.47;2071901;28;20064;-46
2022/11/04 00:35:56;;;;;;;;;;;;;;;20.58;66.72;97910.34;2073683;28;20140;-48
2022/11/04 00:36:58;;;;;;;7.22;5.43;;;;;;;20.62;66.74;97908.84;2076859;28;19921;-47
2022/11/04 00:38:00;;;;;;;6.53;5.80;;;;;;;20.64;66.40;97900.53;2074998;28;20049;-45
2022/11/04 00:39:02;;;;;;;9.32;6.55;;;;;;;20.64;66.81;97893.25;2076387;28;20053;-46
2022/11/04 00:40:04;;;;;;;6.25;5.28;;;;;;;20.67;66.65;97900.91;2076199;28;20064;-44
2022/11/04 00:41:24;;;;;;;9.95;6.38;;;;;;;20.68;66.61;97899.81;2075193;28;20067;-47
2022/11/04 00:42:25;;;;;;;11.07;7.00;;;;;;;20.65;66.40;97900.28;2075476;28;20496;-45
2022/11/04 00:43:28;;;;;;;;;;;;;;;20.58;66.70;97898.78;2077148;28;20086;-47
2022/11/04 00:44:29;;;;;;;9.30;5.57;;;;;;;20.59;66.61;97901.25;2075102;28;20975;-45
2022/11/04 00:45:30;;;;;;;;;;;;;;;20.55;66.84;97893.84;2078053;28;20056;-48
2022/11/04 00:46:32;;;;;;;6.85;4.93;;;;;;;20.59;66.69;97895.84;2076195;28;19929;-46
2022/11/04 00:47:34;;;;;;;6.35;5.18;;;;;;;20.62;66.72;97900.78;2076214;28;20072;-45
2022/11/04 00:48:35;;;;;;;7.95;5.47;;;;;;;20.65;66.69;97900.28;2077380;28;20045;-48
2022/11/04 00:49:36;;;;;;;7.93;5.32;;;;;;;20.66;66.63;97904.63;2076796;28;20045;-46
2022/11/04 00:50:38;;;;;;;8.18;5.88;;;;;;;20.68;66.30;97909.78;2077575;28;20054;-45
2022/11/04 00:51:40;;;;;;;7.18;6.10;;;;;;;20.67;66.61;97898.19;2075768;28;20061;-47
2022/11/04 00:52:41;;;;;;;10.82;6.20;;;;;;;20.67;66.24;97900.03;2075752;28;20058;-46
2022/11/04 00:53:42;;;;;;;7.57;5.80;;;;;;;20.67;66.66;97906.28;2076417;28;20140;-49
2022/11/04 00:54:43;;;;;;;8.85;6.00;;;;;;;20.68;66.32;97905.22;2075959;28;20060;-45
2022/11/04 00:55:45;;;;;;;;;;;;;;;20.59;66.65;97908.47;2075162;28;20689;-47
2022/11/04 00:56:47;;;;;;;8.52;5.20;;;;;;;20.60;66.91;97902.88;2075750;28;19921;-47
2022/11/04 00:57:49;;;;;;;7.05;4.93;;;;;;;20.63;66.41;97910.47;2075371;28;20079;-45
2022/11/04 00:58:51;;;;;;;9.20;6.25;;;;;;;20.65;66.38;97908.38;2076037;28;20045;-46
2022/11/04 00:59:53;;;;;;;9.95;6.38;;;;;;;20.66;66.68;97907.31;2077044;28;20095;-46
2022/11/04 01:00:53;;;;;;;7.18;5.20;;;;;;;20.67;66.19;97903.59;2076740;28;20088;-44
2022/11/04 01:01:55;;;;;;;;;;;;;;;20.58;66.59;97904.97;2078374;28;20053;-45
2022/11/04 01:02:58;;;;;;;10.70;4.57;;;;;;;20.61;66.67;97914.47;2076554;28;19935;-44
2022/11/04 01:04:00;;;;;;;7.38;5.13;;;;;;;20.62;66.39;97899.97;2075885;28;20042;-48
2022/11/04 01:05:01;;;;;;;6.97;5.35;;;;;;;20.64;66.33;97904.03;2077969;28;20595;-46
2022/11/04 01:06:03;;;;;;;;;;;;;;;20.58;66.72;97899.59;2076753;28;20045;-45
2022/11/04 01:07:04;;;;;;;4.85;4.35;;;;;;;20.60;66.48;97905.56;2076822;28;19929;-49
2022/11/04 01:08:05;;;;;;;;;;;;;;;20.55;66.66;97900.06;2077914;28;20145;-48
2022/11/04 01:09:07;;;;;;;6.28;5.65;;;;;;;20.59;66.67;97895.00;2073512;28;19921;-45
2022/11/04 01:10:11;;;;;;;7.75;4.78;;;;;;;20.60;66.83;97889.41;2070227;28;20505;-45
2022/11/04 01:11:12;;;;;;;5.25;4.75;;;;;;;20.63;66.69;97885.41;2074791;28;20144;-46
2022/11/04 01:12:15;;;;;;;10.23;5.05;;;;;;;20.63;66.39;97883.53;2075761;28;20602;-48
2022/11/04 01:13:16;;;;;;;7.90;5.50;;;;;;;20.65;66.40;97872.53;2074991;28;20072;-47
2022/11/04 01:14:19;;;;;;;;;;;;;;;20.56;66.86;97877.47;2079261;28;20049;-44
2022/11/04 01:15:20;;;;;;;8.98;5.10;;;;;;;20.61;66.69;97882.13;2076112;28;19932;-46
2022/11/04 01:16:22;;;;;;;;;;;;;;;20.54;66.53;97876.88;2075127;28;20536;-46
2022/11/04 01:17:23;;;;;;;5.50;3.83;;;;;;;20.57;66.88;97870.19;2079793;28;19928;-44
2022/11/04 01:18:25;;;;;;;;;;;;;;;20.50;67.06;97876.50;2079413;28;20049;-45
2022/11/04 01:19:25;;;;;;;7.20;4.85;;;;;;;20.53;66.60;97865.28;2078573;28;19939;-46
2022/11/04 01:20:27;;;;;;;;;;;;;;;20.50;66.82;97864.88;2081004;28;20137;-46
2022/11/04 01:21:27;;;;;;;;;;;;;;;20.46;66.89;97871.81;2075430;28;20030;-47
2022/11/04 01:22:29;;;;;;;6.47;4.17;;;;;;;20.51;66.96;97861.97;2073857;28;20843;-45
2022/11/04 01:23:30;;;;;;;6.82;4.93;;;;;;;20.58;66.68;97861.88;2073179;28;20046;-48
2022/11/04 01:24:32;;;;;;;;;;;;;;;20.52;66.69;97863.59;2076013;28;20485;-45
2022/11/04 01:25:32;;;;;;;;;;;;;;;20.47;67.05;97854.56;2074818;28;19925;-44
2022/11/04 01:26:35;;;;;;;5.73;4.80;;;;;;;20.52;67.05;97857.38;2074207;28;19921;-48
2022/11/04 01:27:35;;;;;;;9.80;5.20;;;;;;;20.56;66.69;97855.91;2074300;28;20049;-47
2022/11/04 01:28:37;;;;;;;;;;;;;;;20.52;66.92;97857.38;2076013;28;20077;-46
2022/11/04 01:29:40;;;;;;;8.40;5.35;;;;;;;20.56;66.71;97864.00;2074007;28;19921;-46
2022/11/04 01:30:41;;;;;;;5.63;4.45;;;;;;;20.59;66.39;97868.91;2072492;28;20145;-47
2022/11/04 01:31:43;;;;;;;;;;;;;;;20.51;66.96;97861.16;2074077;28;20528;-51
2022/11/04 01:32:44;;;;;;;6.50;4.95;;;;;;;20.53;66.81;97859.06;2075349;28;19921;-46
2022/11/04 01:33:45;;;;;;;7.93;4.78;;;;;;;20.57;66.50;97857.53;2075046;28;20446;-45
2022/11/04 01:34:46;;;;;;;5.05;4.07;;;;;;;20.59;66.79;97855.44;2074491;28;20053;-46
2022/11/04 01:35:48;;;;;;;;;;;;;;;20.53;66.88;97848.28;2070964;28;20056;-45
2022/11/04 01:36:48;;;;;;;;;;;;;;;20.47;67.13;97849.19;2068759;28;19925;-45
2022/11/04 01:37:50;;;;;;;6.63;4.10;;;;;;;20.53;66.70;97848.28;2073531;28;19920;-45
2022/11/04 01:38:53;;;;;;;4.85;3.78;;;;;;;20.55;66.86;97835.41;2071630;28;20082;-46
2022/11/04 01:39:54;;;;;;;6.47;4.43;;;;;;;20.58;66.56;97834.94;2074259;28;20049;-46
2022/11/04 01:40:55;;;;;;;5.93;4.30;;;;;;;20.58;66.63;97828.72;2067952;28;20071;-45
2022/11/04 01:41:57;;;;;;;;;;;;;;;20.53;66.76;97840.19;2071892;28;20042;-46
2022/11/04 01:42:58;;;;;;;7.70;4.00;;;;;;;20.55;66.78;97843.47;2074362;28;19925;-48
2022/11/04 01:44:00;;;;;;;;;;;;;;;20.49;66.94;97845.22;2075290;28;20516;-45
2022/11/04 01:45:02;;;;;;;5.30;3.80;;;;;;;20.54;66.91;97836.47;2075569;28;19941;-49
2022/11/04 01:46:04;;;;;;;5.88;4.40;;;;;;;20.58;66.46;97843.00;2074422;28;20534;-48
2022/11/04 01:47:07;;;;;;;9.80;4.55;;;;;;;20.61;66.20;97842.53;2073690;28;20421;-48
2022/11/04 01:48:16;;;;;;;4.63;4.10;;;;;;;20.62;66.33;97836.09;2073372;28;20056;-45
2022/11/04 01:49:25;;;;;;;7.13;4.20;;;;;;;20.61;66.35;97844.41;2073492;28;20049;-47
2022/11/04 01:50:30;;;;;;;7.28;4.13;;;;;;;20.62;66.51;97841.50;2073957;28;20072;-45
2022/11/04 01:51:33;;;;;;;5.07;3.90;;;;;;;20.62;66.36;97843.38;2074991;28;20045;-47
2022/11/04 01:52:42;;;;;;;7.07;4.88;;;;;;;20.61;66.27;97842.53;2072159;28;20055;-46
2022/11/04 01:53:43;;;;;;;6.50;4.40;;;;;;;20.62;66.34;97836.09;2073800;28;20046;-46
2022/11/04 01:54:47;;;;;;;6.00;4.00;;;;;;;20.62;66.21;97838.81;2066510;28;20045;-48
2022/11/04 01:55:52;;;;;;;6.43;4.47;;;;;;;20.62;66.49;97836.09;2069614;28;20045;-45
2022/11/04 01:56:54;;;;;;;5.22;3.72;;;;;;;20.64;66.43;97825.06;2073705;28;20468;-46
2022/11/04 01:58:00;;;;;;;6.90;4.43;;;;;;;20.64;66.35;97825.06;2073802;28;20076;-47
2022/11/04 01:59:07;;;;;;;4.93;3.85;;;;;;;20.63;66.06;97824.25;2074682;28;20057;-45
2022/11/04 02:00:11;;;;;;;7.40;5.00;;;;;;;20.63;66.05;97821.56;2073633;28;20046;-45
2022/11/04 02:01:13;;;;;;;4.88;4.38;;;;;;;20.62;66.55;97814.56;2073900;28;20045;-45
2022/11/04 02:02:14;;;;;;;7.15;4.72;;;;;;;20.63;66.20;97807.28;2073554;28;20532;-49
2022/11/04 02:03:20;;;;;;;5.57;4.35;;;;;;;20.64;66.27;97809.72;2074036;28;20050;-45
2022/11/04 02:04:25;;;;;;;7.05;4.55;;;;;;;20.63;66.19;97794.63;2074037;28;20064;-47
2022/11/04 02:05:28;;;;;;;7.30;4.65;;;;;;;20.61;66.30;97799.44;2067391;28;20058;-46
2022/11/04 02:06:29;;;;;;;4.03;3.50;;;;;;;20.63;66.29;97789.25;2071190;28;20049;-45
2022/11/04 02:07:31;;;;;;;;;;;;;;;20.54;66.58;97793.38;2069975;28;20045;-45
2022/11/04 02:08:33;;;;;;;4.72;4.03;;;;;;;20.56;66.58;97777.78;2070022;28;19935;-48
2022/11/04 02:09:37;;;;;;;6.07;3.97;;;;;;;20.59;66.33;97776.47;2072973;28;20041;-46
2022/11/04 02:10:41;;;;;;;5.25;4.20;;;;;;;20.60;66.35;97768.16;2073457;28;20045;-44
2022/11/04 02:13:04;;;;;;;5.60;3.85;;;;;;;20.60;66.59;97743.91;2073973;28;20046;-45
2022/11/04 02:14:05;;;;;;;5.28;3.65;;;;;;;20.60;66.41;97740.41;2074902;28;20060;-45
2022/11/04 02:15:08;;;;;;;5.55;3.85;;;;;;;20.62;66.42;97731.03;2074994;28;20049;-46
2022/11/04 02:16:19;;;;;;;5.63;4.20;;;;;;;20.64;66.27;97720.00;2075332;28;20049;-45
2022/11/04 02:17:37;;;;;;;6.68;4.40;;;;;;;20.61;66.18;97715.91;2072470;28;20049;-46
2022/11/04 02:18:54;;;;;;;5.80;4.20;;;;;;;20.60;66.05;97708.88;2074494;28;20046;-46
2022/11/04 02:20:10;;;;;;;7.00;3.85;;;;;;;20.59;66.14;97712.66;2074466;28;20056;-46
2022/11/04 02:21:30;;;;;;;5.70;3.33;;;;;;;20.58;66.40;97705.59;2074445;28;20122;-45
2022/11/04 02:22:53;;;;;;;5.35;3.13;;;;;;;20.56;66.30;97694.28;2074866;28;20060;-45
2022/11/04 02:24:14;;;;;;;4.93;3.33;;;;;;;20.56;66.36;97707.75;2075843;28;20049;-45
2022/11/04 02:25:35;;;;;;;5.72;3.53;;;;;;;20.57;66.35;97693.22;2066640;28;20540;-46
2022/11/04 02:27:09;;;;;;;5.03;3.83;;;;;;;20.55;66.25;97689.13;2073747;28;20702;-46
2022/11/04 02:28:33;;;;;;;5.15;4.00;;;;;;;20.55;66.29;97684.53;2075426;28;20045;-45
2022/11/04 02:30:03;;;;;;;5.60;3.47;;;;;;;20.54;66.43;97685.59;2079050;28;20084;-46
2022/11/04 02:31:11;;;;;;;5.40;3.55;;;;;;;20.56;66.31;97688.03;2074202;28;20073;-45
2022/11/04 02:32:23;;;;;;;3.75;3.13;;;;;;;20.56;66.20;97688.03;2074091;28;20109;-45
2022/11/04 02:33:26;;;;;;;;;;;;;;;20.47;66.68;97692.97;2075200;28;20872;-46
2022/11/04 02:34:39;;;;;;;4.70;4.07;;;;;;;20.52;66.54;97693.06;2075019;28;20447;-45
2022/11/04 02:35:45;;;;;;;4.30;3.42;;;;;;;20.55;66.66;97691.81;2076654;28;20049;-45
2022/11/04 02:36:55;;;;;;;5.85;4.25;;;;;;;20.57;66.42;97678.94;2072751;28;20837;-45
2022/11/04 02:38:06;;;;;;;4.25;3.72;;;;;;;20.57;66.40;97682.44;2077273;28;20042;-46
2022/11/04 02:39:11;;;;;;;;;;;;;;;20.48;66.44;97684.66;2075360;28;20049;-46
2022/11/04 02:40:23;;;;;;;4.18;3.10;;;;;;;20.51;66.54;97683.38;2068780;28;21077;-44
2022/11/04 02:41:37;;;;;;;4.55;3.33;;;;;;;20.53;66.63;97692.88;2074576;28;20042;-46
2022/11/04 02:42:44;;;;;;;5.90;3.67;;;;;;;20.55;66.62;97691.81;2072241;28;20042;-48
2022/11/04 02:43:53;;;;;;;3.60;3.30;;;;;;;20.57;66.44;97698.59;2075648;28;20053;-46
2022/11/04 02:45:08;;;;;;;5.45;3.88;;;;;;;20.57;66.10;97701.28;2074315;28;20056;-47
2022/11/04 02:46:17;;;;;;;3.88;2.90;;;;;;;20.57;66.51;97692.41;2074464;28;20459;-45
2022/11/04 02:47:23;;;;;;;6.30;3.53;;;;;;;20.58;66.29;97696.72;2073514;28;20052;-46
2022/11/04 02:48:31;;;;;;;4.70;3.78;;;;;;;20.61;66.21;97696.22;2072941;28;20041;-46
2022/11/04 02:49:40;;;;;;;4.97;3.72;;;;;;;20.59;66.13;97696.50;2069036;28;20978;-45
2022/11/04 02:50:49;;;;;;;5.55;4.35;;;;;;;20.58;66.15;97684.06;2072816;28;20146;-47
2022/11/04 02:51:57;;;;;;;6.45;3.60;;;;;;;20.59;66.32;97687.56;2073873;28;20050;-45
2022/11/04 02:53:07;;;;;;;4.20;2.90;;;;;;;20.58;66.22;97689.44;2075507;28;20053;-47
2022/11/04 02:54:11;;;;;;;4.00;3.22;;;;;;;20.59;66.30;97691.09;2072848;28;20053;-46
2022/11/04 02:55:18;;;;;;;4.32;3.55;;;;;;;20.60;66.18;97700.00;2068449;28;20083;-44
2022/11/04 02:56:22;;;;;;;5.28;3.00;;;;;;;20.60;66.12;97700.81;2071827;28;20046;-45
2022/11/04 02:57:29;;;;;;;5.70;3.45;;;;;;;20.61;66.33;97693.53;2071827;28;20053;-46
2022/11/04 02:58:34;;;;;;;4.00;3.33;;;;;;;20.62;66.09;97689.81;2074267;28;20053;-45
2022/11/04 02:59:39;;;;;;;5.78;3.25;;;;;;;20.60;66.05;97684.66;2073901;28;20501;-46
2022/11/04 03:00:44;;;;;;;4.85;3.20;;;;;;;20.59;66.14;97691.09;2073167;28;20061;-47
2022/11/04 03:01:49;;;;;;;4.63;3.95;;;;;;;20.60;66.17;97691.91;2073654;28;20054;-45
2022/11/04 03:02:53;;;;;;;4.13;3.72;;;;;;;20.60;66.14;97700.81;2073256;28;20049;-45
2022/11/04 03:04:01;;;;;;;3.22;2.60;;;;;;;20.60;66.23;97703.50;2074550;28;20821;-46
2022/11/04 03:05:04;;;;;;;4.80;2.80;;;;;;;20.59;66.04;97699.19;2073884;28;20060;-46
2022/11/04 03:06:09;;;;;;;4.32;3.70;;;;;;;20.59;66.45;97701.03;2071979;28;20128;-45
2022/11/04 03:07:14;;;;;;;3.38;2.70;;;;;;;20.59;66.24;97704.56;2074203;28;20603;-46
2022/11/04 03:08:20;;;;;;;4.03;3.17;;;;;;;20.60;66.47;97705.38;2075215;28;20079;-46
2022/11/04 03:09:22;;;;;;;5.43;3.60;;;;;;;20.60;66.23;97702.69;2072080;28;20045;-44
2022/11/04 03:10:30;;;;;;;5.85;2.83;;;;;;;20.60;66.00;97705.38;2066033;28;20049;-46
2022/11/04 03:11:31;;;;;;;4.25;3.55;;;;;;;20.61;66.22;97715.09;2074548;28;20057;-46
2022/11/04 03:12:40;;;;;;;4.13;2.75;;;;;;;20.59;66.11;97715.34;2073681;28;20136;-45
2022/11/04 03:13:46;;;;;;;9.45;3.60;;;;;;;20.60;66.29;97716.16;2075490;28;20045;-44
2022/11/04 03:14:51;;;;;;;3.80;2.60;;;;;;;20.59;66.37;97715.34;2073415;28;20050;-46
2022/11/04 03:15:57;;;;;;;4.00;3.03;;;;;;;20.61;66.03;97723.19;2073393;28;20064;-47
2022/11/04 03:17:03;;;;;;;4.93;3.17;;;;;;;20.59;66.39;97725.28;2072898;28;20056;-46
2022/11/04 03:18:16;;;;;;;5.15;3.75;;;;;;;20.59;66.12;97725.28;2071641;28;20052;-45
2022/11/04 03:19:27;;;;;;;6.57;3.55;;;;;;;20.59;66.24;97717.19;2070285;28;20102;-45
2022/11/04 03:20:30;;;;;;;6.03;3.25;;;;;;;20.59;66.17;97731.50;2074467;28;20054;-45
2022/11/04 03:21:36;;;;;;;4.57;2.95;;;;;;;20.59;66.26;97725.28;2072241;28;20049;-45
2022/11/04 03:22:37;;;;;;;4.65;3.05;;;;;;;20.58;65.97;97721.78;2073478;28;20045;-45
2022/11/04 03:23:40;;;;;;;4.10;2.92;;;;;;;20.60;66.33;97729.63;2075275;28;20048;-45
2022/11/04 03:24:42;;;;;;;5.30;3.10;;;;;;;20.58;66.31;97727.16;2072465;28;20052;-46
2022/11/04 03:25:47;;;;;;;5.13;3.40;;;;;;;20.59;66.17;97722.59;2066894;28;20057;-45
2022/11/04 03:26:54;;;;;;;4.68;2.85;;;;;;;20.59;65.96;97719.88;2071837;28;20049;-48
2022/11/04 03:28:03;;;;;;;3.80;2.75;;;;;;;20.59;66.05;97723.44;2074278;28;20068;-45
2022/11/04 03:29:16;;;;;;;3.15;2.83;;;;;;;20.57;66.15;97713.94;2073845;28;20057;-45
2022/11/04 03:30:19;;;;;;;3.40;2.85;;;;;;;20.57;66.04;97711.25;2073071;28;20041;-45
2022/11/04 03:31:28;;;;;;;4.78;3.10;;;;;;;20.57;66.14;97717.44;2074978;28;20044;-46
2022/11/04 03:32:39;;;;;;;7.07;3.58;;;;;;;20.56;66.21;97723.06;2075529;28;20102;-45
2022/11/04 03:33:45;;;;;;;6.35;3.15;;;;;;;20.56;66.48;97718.53;2075563;28;20195;-46
2022/11/04 03:34:46;;;;;;;3.70;2.60;;;;;;;20.56;66.34;97723.91;2068365;28;20049;-47
2022/11/04 03:35:48;;;;;;;;;;;;;;;20.51;66.42;97731.84;2074232;28;20045;-48
2022/11/04 03:36:48;;;;;;;;;;;;;;;20.43;66.58;97732.22;2074147;28;19925;-45
2022/11/04 03:37:50;;;;;;;4.32;2.45;;;;;;;20.47;66.75;97731.47;2071502;28;19921;-44
2022/11/04 03:38:52;;;;;;;4.65;2.95;;;;;;;20.52;66.25;97730.78;2072923;28;20049;-46
2022/11/04 03:39:54;;;;;;;6.88;3.47;;;;;;;20.55;66.24;97732.22;2072162;28;20530;-47
2022/11/04 03:40:58;;;;;;;5.18;3.00;;;;;;;20.57;66.47;97720.16;2067994;28;20058;-45
2022/11/04 03:42:18;;;;;;;4.72;3.35;;;;;;;20.57;66.09;97722.84;2074288;28;20077;-45
2022/11/04 03:43:23;;;;;;;3.70;2.88;;;;;;;20.55;66.27;97722.25;2072136;28;20119;-46
2022/11/04 03:44:25;;;;;;;4.25;2.97;;;;;;;20.55;66.07;97722.25;2074301;28;20077;-45
2022/11/04 03:45:26;;;;;;;3.90;2.45;;;;;;;20.56;66.11;97726.59;2072077;28;20057;-49
2022/11/04 03:46:30;;;;;;;3.65;3.00;;;;;;;20.59;66.08;97728.81;2074911;28;20057;-46
2022/11/04 03:47:32;;;;;;;5.28;3.08;;;;;;;20.58;66.30;97721.78;2074103;28;20732;-49
2022/11/04 03:48:33;;;;;;;6.85;3.85;;;;;;;20.58;65.96;97720.97;2072427;28;20057;-45
2022/11/04 03:49:35;;;;;;;5.50;2.50;;;;;;;20.57;65.98;97725.53;2073499;28;21134;-45
2022/11/04 03:50:40;;;;;;;6.03;3.00;;;;;;;20.58;66.32;97724.47;2074457;28;20065;-45
2022/11/04 03:51:42;;;;;;;5.00;3.13;;;;;;;20.56;66.34;97723.91;2072645;28;20064;-46
2022/11/04 03:52:43;;;;;;;3.53;2.90;;;;;;;20.58;66.08;97723.66;2071506;28;20053;-45
2022/11/04 03:53:45;;;;;;;;;;;;;;;20.50;66.59;97722.09;2075076;28;20053;-45
2022/11/04 03:54:46;;;;;;;;;;;;;;;20.41;66.52;97720.84;2072033;28;19936;-45
2022/11/04 03:56:03;;;;;;;;;;;;;;;20.36;66.92;97718.03;2068500;28;19928;-45
2022/11/04 03:57:19;;;;;;;4.03;2.85;;;;;;;20.43;66.63;97716.06;2076349;28;20387;-45
2022/11/04 03:58:33;;;;;;;4.32;2.55;;;;;;;20.47;66.68;97720.72;2073676;28;20437;-44
2022/11/04 03:59:51;;;;;;;5.07;3.33;;;;;;;20.51;66.19;97718.38;2074268;28;20057;-47
2022/11/04 04:01:03;;;;;;;2.90;2.60;;;;;;;20.51;66.37;97713.00;2075216;28;20073;-45
2022/11/04 04:02:12;;;;;;;5.50;2.90;;;;;;;20.53;66.51;97708.19;2076716;28;20053;-44
2022/11/04 04:03:21;;;;;;;5.15;2.75;;;;;;;20.53;66.22;97709.03;2070330;28;20111;-45
2022/11/04 04:04:26;;;;;;;4.43;2.78;;;;;;;20.53;66.38;97708.19;2074572;28;20401;-45
2022/11/04 04:05:31;;;;;;;3.50;2.30;;;;;;;20.55;66.36;97700.69;2074902;28;20430;-44
2022/11/04 04:06:34;;;;;;;4.97;3.08;;;;;;;20.54;66.08;97704.47;2073619;28;20064;-46
2022/11/04 04:07:40;;;;;;;5.15;3.22;;;;;;;20.57;66.14;97703.16;2075304;28;20056;-45
2022/11/04 04:08:46;;;;;;;6.10;3.00;;;;;;;20.57;66.09;97703.16;2075293;28;20052;-44
2022/11/04 04:09:54;;;;;;;4.57;3.00;;;;;;;20.56;66.17;97701.50;2072677;28;20417;-45
2022/11/04 04:11:05;;;;;;;3.60;2.88;;;;;;;20.55;66.28;97697.19;2073469;28;20052;-47
2022/11/04 04:12:10;;;;;;;;;;;;;;;20.44;66.71;97701.53;2073878;28;20512;-45
2022/11/04 04:13:22;;;;;;;5.07;2.97;;;;;;;20.47;66.47;97706.44;2074610;28;19928;-45
2022/11/04 04:14:39;;;;;;;3.03;2.50;;;;;;;20.49;66.52;97701.63;2075354;28;20125;-47
2022/11/04 04:15:45;;;;;;;3.97;2.65;;;;;;;20.51;66.32;97704.91;2075774;28;20049;-45
2022/11/04 04:16:49;;;;;;;4.75;2.38;;;;;;;20.51;66.34;97694.13;2076027;28;20054;-45
2022/11/04 04:17:58;;;;;;;3.97;3.25;;;;;;;20.53;66.16;97705.50;2073442;28;20992;-47
2022/11/04 04:19:04;;;;;;;6.35;3.10;;;;;;;20.54;66.10;97699.06;2075268;28;20139;-47
2022/11/04 04:20:11;;;;;;;5.93;3.10;;;;;;;20.53;66.37;97689.34;2075519;28;20041;-45
2022/11/04 04:21:21;;;;;;;2.90;2.70;;;;;;;20.53;66.52;97695.56;2075201;28;20076;-47
2022/11/04 04:22:25;;;;;;;3.08;2.47;;;;;;;20.51;66.52;97700.34;2074779;28;20057;-45
2022/11/04 04:27:40;;;;;;;3.10;2.70;;;;;;;20.50;66.52;97703.25;2070934;28;20141;-46
2022/11/04 04:28:43;;;;;;;4.35;2.60;;;;;;;20.50;66.24;97706.78;2075865;28;20072;-46
2022/11/04 04:29:46;;;;;;;3.20;2.90;;;;;;;20.52;66.40;97714.63;2075745;28;20069;-46
2022/11/04 04:30:46;;;;;;;3.67;3.00;;;;;;;20.51;66.08;97694.94;2075698;28;20061;-45
2022/11/04 04:31:56;;;;;;;;;;;;;;;20.43;66.45;97707.97;2076375;28;20523;-44
2022/11/04 04:33:02;;;;;;;5.28;2.47;;;;;;;20.47;66.40;97695.66;2074264;28;20023;-45
2022/11/04 04:34:04;;;;;;;4.57;3.00;;;;;;;20.46;66.73;97686.75;2073442;28;20056;-45
2022/11/04 04:36:28;;;;;;;5.28;3.38;;;;;;;20.48;66.26;97683.84;2076893;28;20076;-47
2022/11/04 04:37:29;;;;;;;6.40;2.88;;;;;;;20.51;66.23;97683.38;2073953;28;20050;-46
2022/11/04 04:45:25;;;;;;;3.67;2.70;;;;;;;20.47;66.23;97656.06;2074125;28;20050;-45
2022/11/04 04:46:27;;;;;;;2.90;2.47;;;;;;;20.50;66.10;97657.47;2074514;28;20513;-45
2022/11/04 04:47:41;;;;;;;2.80;2.08;;;;;;;20.49;65.99;97653.97;2072721;28;20049;-46
2022/11/04 04:48:43;;;;;;;3.58;2.33;;;;;;;20.51;66.20;97651.03;2075070;28;20049;-44
2022/11/04 04:49:50;;;;;;;3.20;2.90;;;;;;;20.50;66.32;97652.91;2073330;28;20056;-48
2022/11/04 04:50:56;;;;;;;6.25;2.75;;;;;;;20.51;66.02;97654.53;2073488;28;20060;-48
2022/11/04 04:51:57;;;;;;;4.80;2.30;;;;;;;20.51;66.42;97659.13;2074460;28;20098;-48
2022/11/04 04:53:00;;;;;;;3.53;2.40;;;;;;;20.50;66.29;97662.84;2074184;28;20052;-44
2022/11/04 04:54:00;;;;;;;5.03;2.55;;;;;;;20.52;66.18;97656.16;2072759;28;20045;-47
2022/11/04 04:55:02;;;;;;;4.35;2.65;;;;;;;20.52;65.99;97652.66;2073417;28;20048;-51
2022/11/04 04:56:04;;;;;;;3.83;2.78;;;;;;;20.51;65.93;97641.06;2071403;28;20121;-44
2022/11/04 04:57:05;;;;;;;2.80;2.47;;;;;;;20.52;66.14;97639.19;2073369;28;20862;-51
2022/11/04 04:58:07;;;;;;;3.95;3.00;;;;;;;20.52;66.38;97636.50;2074119;28;20049;-44
2022/11/04 04:59:08;;;;;;;2.75;2.33;;;;;;;20.53;66.23;97643.53;2076353;28;20053;-46
2022/11/04 05:00:12;;;;;;;;;;;;;;;20.44;66.33;97628.81;2075224;28;20437;-44
2022/11/04 05:01:13;;;;;;;5.15;2.58;;;;;;;20.44;66.25;97636.88;2075044;28;19920;-44
2022/11/04 05:02:14;;;;;;;;;;;;;;;20.37;66.64;97625.44;2076344;28;20053;-47
2022/11/04 05:03:16;;;;;;;;;;;;;;;20.31;66.85;97622.66;2068876;28;20022;-49
2022/11/04 05:04:18;;;;;;;5.28;2.65;;;;;;;20.38;66.74;97624.38;2069080;28;20277;-44
2022/11/04 05:05:20;;;;;;;6.85;2.85;;;;;;;20.43;66.32;97617.22;2073288;28;20523;-46
2022/11/04 05:06:21;;;;;;;4.22;2.85;;;;;;;20.46;66.31;97619.44;2074650;28;20577;-50
2022/11/04 05:07:23;;;;;;;3.47;3.17;;;;;;;20.49;66.32;97620.81;2075200;28;20053;-45
2022/11/04 05:08:24;;;;;;;3.35;2.78;;;;;;;20.50;66.08;97617.06;2074445;28;20050;-47
2022/11/04 05:09:25;;;;;;;;;;;;;;;20.40;66.59;97619.56;2072443;28;20054;-49
2022/11/04 05:10:27;;;;;;;4.85;3.00;;;;;;;20.41;66.45;97613.13;2072278;28;19929;-45
2022/11/04 05:11:28;;;;;;;5.82;2.53;;;;;;;20.45;66.27;97614.28;2072671;28;20643;-45
2022/11/04 05:13:24;;;;;;;3.60;2.70;;;;;;;20.48;66.15;97619.19;2070525;28;20052;-47
2022/11/04 05:13:50;;;;;;;2.70;2.00;;;;;;;20.47;66.11;97614.84;2073754;28;20336;-45
2022/11/04 05:14:52;;;;;;;3.38;2.00;;;;;;;20.48;66.15;97619.19;2075908;28;20053;-46
2022/11/04 05:15:53;;;;;;;3.13;2.85;;;;;;;20.50;66.00;97622.44;2075121;28;20057;-44
2022/11/04 05:16:55;;;;;;;;;;;;;;;20.41;66.51;97618.50;2074628;28;20045;-44
2022/11/04 05:17:56;;;;;;;;;;;;;;;20.30;66.87;97620.19;2075806;28;20478;-48
2022/11/04 05:18:58;;;;;;;3.15;2.50;;;;;;;20.36;66.68;97618.41;2075049;28;19945;-45
2022/11/04 05:20:00;;;;;;;2.70;2.22;;;;;;;20.42;66.65;97618.28;2074663;28;20151;-44
2022/11/04 05:21:04;;;;;;;2.88;2.28;;;;;;;20.46;66.37;97618.59;2075310;28;20049;-48
2022/11/04 05:22:05;;;;;;;3.50;2.65;;;;;;;20.47;66.45;97617.53;2073770;28;20099;-46
2022/11/04 05:23:08;;;;;;;2.65;2.35;;;;;;;20.47;66.33;97617.53;2073449;28;20053;-46
2022/11/04 05:24:09;;;;;;;3.05;2.65;;;;;;;20.48;66.10;97619.19;2075083;28;20060;-45
2022/11/04 05:25:11;;;;;;;3.88;2.15;;;;;;;20.49;66.39;97615.44;2070134;28;20063;-46
2022/11/04 05:26:13;;;;;;;4.13;2.30;;;;;;;20.48;66.14;97613.81;2074645;28;20050;-47
2022/11/04 05:27:15;;;;;;;3.50;2.75;;;;;;;20.47;66.27;97612.97;2071728;28;20059;-45
2022/11/04 05:28:16;;;;;;;3.83;2.40;;;;;;;20.49;66.30;97618.13;2075158;28;20429;-47
2022/11/04 05:29:17;;;;;;;;;;;;;;;20.39;66.49;97613.34;2075184;28;20081;-45
2022/11/04 05:30:18;;;;;;;3.65;2.45;;;;;;;20.42;66.09;97620.97;2075299;28;19932;-47
2022/11/04 05:31:19;;;;;;;;;;;;;;;20.33;66.65;97616.19;2076537;28;20046;-44
2022/11/04 05:32:20;;;;;;;;;;;;;;;20.27;66.55;97626.84;2076270;28;19921;-47
2022/11/04 05:33:22;;;;;;;5.13;2.30;;;;;;;20.33;66.82;97624.28;2073730;28;19920;-46
2022/11/04 05:34:23;;;;;;;4.15;2.80;;;;;;;20.38;66.37;97614.41;2074841;28;20295;-44
2022/11/04 05:35:26;;;;;;;;;;;;;;;20.33;66.64;97614.31;2074632;28;20049;-46
2022/11/04 05:36:26;;;;;;;2.65;2.45;;;;;;;20.37;66.67;97611.97;2076585;28;19921;-49
2022/11/04 05:37:28;;;;;;;;;;;;;;;20.31;66.62;97616.44;2075991;28;20468;-46
2022/11/04 05:38:28;;;;;;;;;;;;;;;20.25;66.93;97620.91;2075321;28;19921;-47
2022/11/04 05:39:30;;;;;;;3.22;2.50;;;;;;;20.34;66.82;97623.19;2073312;28;19939;-45
2022/11/04 05:40:31;;;;;;;4.68;2.65;;;;;;;20.39;66.56;97615.22;2069741;28;20049;-44
2022/11/04 05:41:33;;;;;;;;;;;;;;;20.31;66.55;97624.53;2075574;28;20041;-45